Time;durP1;ratioP1;P1;durP2;ratioP2;P2;SDS_P1;SDS_P2;PMS_P1;PMS_P2;Temp;Humidity;BMP_temperature;BMP_pressure;BME280_temperature;BME280_humidity;BME280_pressure;Samples;Min_cycle;Max_cycle;Signal;HPM_P1;HPM_P2
2021/01/13 00:01:17;;;;;;;0.00;0.00;;;15.10;68.80;;;;;;4196591;28;20117;-38
2021/01/13 00:03:38;;;;;;;0.00;0.00;;;15.20;68.70;;;;;;4197072;28;20392;-38
2021/01/13 00:05:59;;;;;;;0.00;0.00;;;15.20;68.70;;;;;;4197018;28;20099;-39
2021/01/13 00:08:20;;;;;;;0.00;0.00;;;15.10;68.70;;;;;;4197740;28;20135;-39
2021/01/13 00:10:41;;;;;;;0.00;0.00;;;15.10;68.80;;;;;;4197063;28;20102;-38
2021/01/13 00:13:03;;;;;;;0.00;0.00;;;15.00;68.90;;;;;;4197165;28;20040;-38
2021/01/13 00:15:23;;;;;;;0.00;0.00;;;15.00;69.00;;;;;;4196732;28;20084;-39
2021/01/13 00:17:47;;;;;;;1.55;1.08;;;15.00;69.20;;;;;;4196800;28;20064;-38
2021/01/13 00:20:09;;;;;;;0.00;0.00;;;14.90;69.30;;;;;;4196964;28;20057;-39
2021/01/13 00:22:30;;;;;;;0.00;0.00;;;15.00;69.40;;;;;;4196420;28;20507;-38
2021/01/13 00:24:51;;;;;;;;;;;15.10;68.90;;;;;;4184817;28;20491;-38
2021/01/13 00:27:12;;;;;;;0.00;0.00;;;15.30;68.20;;;;;;4195564;28;19924;-39
2021/01/13 00:29:33;;;;;;;0.00;0.00;;;15.50;67.40;;;;;;4196370;28;20057;-38
2021/01/13 00:31:56;;;;;;;0.00;0.00;;;15.60;66.80;;;;;;4196557;28;20048;-38
2021/01/13 00:34:17;;;;;;;0.00;0.00;;;15.70;66.60;;;;;;4196733;28;20106;-38
2021/01/13 00:36:38;;;;;;;0.00;0.00;;;15.70;66.20;;;;;;4196423;28;20123;-39
2021/01/13 00:39:00;;;;;;;0.10;0.10;;;15.70;66.10;;;;;;4196457;28;20133;-38
2021/01/13 00:41:22;;;;;;;0.00;0.00;;;15.70;66.20;;;;;;4196050;28;20057;-39
2021/01/13 00:43:42;;;;;;;;;;;15.70;66.20;;;;;;4196810;28;20056;-39
2021/01/13 00:46:03;;;;;;;0.00;0.00;;;15.80;65.90;;;;;;4181064;28;19999;-39
2021/01/13 00:48:25;;;;;;;;;;;15.80;65.60;;;;;;4164145;28;20064;-38
2021/01/13 00:50:45;;;;;;;0.00;0.00;;;15.80;65.60;;;;;;4163761;28;19921;-40
2021/01/13 00:53:07;;;;;;;0.00;0.00;;;15.80;65.70;;;;;;4163360;28;20076;-39
2021/01/13 00:55:29;;;;;;;;;;;15.80;65.70;;;;;;4163779;28;20096;-39
2021/01/13 00:57:50;;;;;;;0.00;0.00;;;15.70;65.80;;;;;;4163261;28;20418;-38
2021/01/13 01:00:11;;;;;;;;;;;15.70;65.90;;;;;;4163063;28;20115;-39
2021/01/13 01:02:32;;;;;;;0.00;0.00;;;15.70;65.90;;;;;;4163168;28;20256;-38
2021/01/13 01:04:53;;;;;;;0.00;0.00;;;15.80;66.00;;;;;;4163538;28;20053;-39
2021/01/13 01:07:14;;;;;;;0.03;0.03;;;15.80;65.80;;;;;;4163680;28;20140;-43
2021/01/13 01:09:35;;;;;;;0.00;0.00;;;15.90;65.40;;;;;;4163093;28;20057;-38
2021/01/13 01:11:57;;;;;;;0.00;0.00;;;16.10;64.60;;;;;;4162892;28;20049;-39
2021/01/13 01:14:18;;;;;;;0.55;0.55;;;16.20;64.00;;;;;;4162631;28;20531;-38
2021/01/13 01:16:42;;;;;;;0.25;0.25;;;16.30;63.80;;;;;;4162929;28;20068;-38
2021/01/13 01:19:05;;;;;;;0.00;0.00;;;16.20;63.70;;;;;;4163179;28;20053;-38
2021/01/13 01:21:26;;;;;;;0.43;0.43;;;16.30;63.70;;;;;;4162956;28;20049;-38
2021/01/13 01:23:47;;;;;;;0.00;0.00;;;16.30;63.50;;;;;;4162562;28;20056;-38
2021/01/13 01:26:08;;;;;;;0.00;0.00;;;16.30;63.40;;;;;;4146583;28;20061;-38
2021/01/13 01:28:30;;;;;;;0.00;0.00;;;16.30;63.40;;;;;;4147778;28;20061;-38
2021/01/13 01:30:51;;;;;;;3.63;1.08;;;16.20;63.50;;;;;;4162774;28;20573;-38
2021/01/13 01:33:12;;;;;;;0.00;0.00;;;16.10;63.80;;;;;;4162844;28;20053;-39
2021/01/13 01:35:33;;;;;;;0.00;0.00;;;16.10;63.90;;;;;;4146401;28;20101;-38
2021/01/13 01:37:53;;;;;;;0.00;0.00;;;16.10;64.00;;;;;;4146435;28;20077;-39
2021/01/13 01:40:17;;;;;;;0.00;0.00;;;16.10;64.10;;;;;;4155175;28;20140;-38
2021/01/13 01:42:44;;;;;;;0.00;0.00;;;16.00;64.30;;;;;;4162537;28;20488;-38
2021/01/13 01:45:08;;;;;;;0.00;0.00;;;16.00;64.50;;;;;;4162391;28;20077;-38
2021/01/13 01:48:11;;;;;;;0.22;0.22;;;15.90;64.50;;;;;;4185937;28;20060;-47
2021/01/13 01:50:35;;;;;;;0.00;0.00;;;16.00;64.40;;;;;;4195472;28;20063;-38
2021/01/13 01:53:07;;;;;;;0.00;0.00;;;16.10;64.20;;;;;;4195663;28;20537;-38
2021/01/13 01:55:33;;;;;;;0.00;0.00;;;16.20;63.60;;;;;;4195582;28;20419;-38
2021/01/13 01:58:00;;;;;;;0.00;0.00;;;16.30;63.40;;;;;;4194550;28;20766;-38
2021/01/13 02:00:30;;;;;;;0.00;0.00;;;16.20;63.40;;;;;;4191209;28;20114;-39
2021/01/13 02:02:57;;;;;;;0.00;0.00;;;16.20;63.50;;;;;;4195466;28;20056;-39
2021/01/13 02:05:19;;;;;;;0.00;0.00;;;16.10;63.70;;;;;;4195479;28;20049;-39
2021/01/13 02:07:42;;;;;;;0.00;0.00;;;16.10;63.80;;;;;;4195466;28;20549;-39
2021/01/13 02:10:05;;;;;;;0.57;0.57;;;16.00;64.00;;;;;;4195502;28;20056;-38
2021/01/13 02:12:29;;;;;;;0.00;0.00;;;16.00;64.20;;;;;;4195441;28;20135;-38
2021/01/13 02:14:53;;;;;;;0.00;0.00;;;15.90;64.50;;;;;;4195164;28;20269;-39
2021/01/13 02:17:16;;;;;;;;;;;15.90;64.60;;;;;;4195910;28;20064;-38
2021/01/13 02:20:04;;;;;;;0.00;0.00;;;15.90;64.50;;;;;;4195421;28;20402;-39
2021/01/13 02:22:26;;;;;;;0.00;0.00;;;15.90;64.50;;;;;;4195289;28;20052;-38
2021/01/13 02:25:45;;;;;;;0.00;0.00;;;15.90;64.60;;;;;;4195310;28;20570;-39
2021/01/13 02:28:12;;;;;;;0.10;0.10;;;15.90;64.80;;;;;;4195492;28;20052;-39
2021/01/13 02:30:36;;;;;;;0.00;0.00;;;16.00;65.10;;;;;;4195505;28;20084;-39
2021/01/13 02:33:00;;;;;;;0.08;0.08;;;16.20;63.70;;;;;;4195188;28;20056;-39
2021/01/13 02:35:25;;;;;;;0.00;0.00;;;16.20;63.20;;;;;;4195293;28;20080;-39
2021/01/13 02:38:01;;;;;;;0.00;0.00;;;16.30;63.20;;;;;;4195320;28;20133;-39
2021/01/13 02:40:23;;;;;;;0.00;0.00;;;16.20;63.30;;;;;;4194927;28;20507;-38
2021/01/13 02:42:58;;;;;;;0.00;0.00;;;16.10;63.50;;;;;;4195339;28;20052;-38
2021/01/13 02:45:23;;;;;;;0.00;0.00;;;16.10;63.70;;;;;;4195155;28;20529;-39
2021/01/13 02:48:06;;;;;;;0.00;0.00;;;16.30;63.20;;;;;;4195261;28;20052;-39
2021/01/13 02:50:28;;;;;;;0.00;0.00;;;16.40;62.50;;;;;;4195742;28;20410;-39
2021/01/13 02:53:30;;;;;;;0.00;0.00;;;16.50;62.30;;;;;;4197153;28;20090;-38
2021/01/13 02:56:04;;;;;;;0.00;0.00;;;16.40;62.30;;;;;;4198441;28;20059;-39
2021/01/13 02:58:31;;;;;;;0.10;0.10;;;16.40;62.40;;;;;;4197821;28;20056;-38
2021/01/13 03:00:53;;;;;;;0.00;0.00;;;16.40;62.50;;;;;;4197987;28;20466;-38
2021/01/13 03:03:17;;;;;;;0.00;0.00;;;16.30;62.60;;;;;;4198094;28;20059;-38
2021/01/13 03:05:38;;;;;;;0.00;0.00;;;16.20;63.00;;;;;;4198446;28;20130;-38
2021/01/13 03:08:00;;;;;;;0.00;0.00;;;16.00;63.30;;;;;;4197918;28;20563;-38
2021/01/13 03:10:24;;;;;;;;;;;15.90;63.70;;;;;;4198478;28;20055;-38
2021/01/13 03:12:49;;;;;;;0.00;0.00;;;15.90;64.00;;;;;;4197901;28;20025;-38
2021/01/13 03:15:11;;;;;;;0.20;0.20;;;16.00;63.80;;;;;;4198125;28;20052;-38
2021/01/13 03:17:50;;;;;;;0.00;0.00;;;16.20;63.30;;;;;;4198032;28;20061;-38
2021/01/13 03:20:19;;;;;;;0.00;0.00;;;16.20;62.90;;;;;;4181270;28;20122;-38
2021/01/13 03:22:48;;;;;;;0.10;0.10;;;16.30;62.80;;;;;;4194324;28;20418;-38
2021/01/13 03:25:11;;;;;;;0.00;0.00;;;16.40;62.50;;;;;;4197996;28;20053;-39
2021/01/13 03:27:34;;;;;;;0.00;0.00;;;16.60;62.00;;;;;;4197934;28;20499;-38
2021/01/13 03:29:58;;;;;;;0.00;0.00;;;16.70;61.50;;;;;;4196459;28;20139;-38
2021/01/13 03:32:24;;;;;;;0.10;0.10;;;16.70;61.50;;;;;;4197678;28;20053;-38
2021/01/13 03:35:12;;;;;;;0.03;0.03;;;16.70;61.50;;;;;;4197963;28;20060;-39
2021/01/13 03:37:54;;;;;;;0.00;0.00;;;16.60;61.60;;;;;;4191401;28;20056;-39
2021/01/13 03:40:20;;;;;;;0.00;0.00;;;16.50;62.00;;;;;;4181181;28;20057;-39
2021/01/13 03:42:51;;;;;;;0.00;0.00;;;16.40;62.30;;;;;;4180951;28;20057;-39
2021/01/13 03:45:21;;;;;;;0.32;0.32;;;16.50;62.20;;;;;;4179835;28;20418;-39
2021/01/13 03:48:09;;;;;;;0.00;0.00;;;16.70;61.70;;;;;;4181208;28;20728;-39
2021/01/13 03:50:36;;;;;;;3.10;2.17;;;16.80;61.10;;;;;;4197116;28;20177;-39
2021/01/13 03:52:59;;;;;;;0.00;0.00;;;16.80;60.90;;;;;;4197156;28;20139;-39
2021/01/13 03:55:22;;;;;;;0.03;0.03;;;16.80;61.00;;;;;;4180910;28;20490;-38
2021/01/13 03:58:12;;;;;;;0.00;0.00;;;16.70;61.30;;;;;;4181193;28;20076;-39
2021/01/13 04:00:44;;;;;;;0.00;0.00;;;16.60;61.50;;;;;;4180575;28;20053;-38
2021/01/13 04:03:15;;;;;;;0.00;0.00;;;16.50;62.00;;;;;;4181004;28;20061;-38
2021/01/13 04:05:42;;;;;;;0.00;0.00;;;16.50;62.10;;;;;;4180595;28;20053;-39
2021/01/13 04:08:04;;;;;;;0.22;0.22;;;16.50;62.20;;;;;;4183547;28;20104;-38
2021/01/13 04:10:25;;;;;;;0.08;0.08;;;16.40;62.30;;;;;;4196647;28;20106;-39
2021/01/13 04:12:56;;;;;;;0.00;0.00;;;16.40;62.70;;;;;;4197074;28;20118;-39
2021/01/13 04:15:18;;;;;;;0.00;0.00;;;16.30;62.80;;;;;;4196132;28;20058;-39
2021/01/13 04:17:42;;;;;;;0.00;0.00;;;16.40;62.50;;;;;;4196550;28;20499;-38
2021/01/13 04:20:03;;;;;;;0.68;0.68;;;16.50;62.30;;;;;;4180691;28;20053;-39
2021/01/13 04:22:26;;;;;;;0.00;0.00;;;16.50;62.30;;;;;;4180370;28;20127;-38
2021/01/13 04:24:48;;;;;;;0.10;0.10;;;16.40;62.30;;;;;;4180428;28;20144;-38
2021/01/13 04:27:12;;;;;;;0.00;0.00;;;16.50;62.30;;;;;;4180219;28;20503;-39
2021/01/13 04:29:33;;;;;;;0.00;0.00;;;16.60;61.70;;;;;;4195896;28;20056;-39
2021/01/13 04:31:54;;;;;;;0.00;0.00;;;16.80;61.20;;;;;;4196717;28;20063;-39
2021/01/13 04:34:16;;;;;;;0.00;0.00;;;16.80;61.00;;;;;;4196759;28;20061;-39
2021/01/13 04:36:41;;;;;;;;;;;16.70;61.20;;;;;;4197075;28;20608;-38
2021/01/13 04:39:03;;;;;;;0.00;0.00;;;16.70;61.50;;;;;;4196496;28;20256;-39
2021/01/13 04:41:29;;;;;;;0.00;0.00;;;16.70;61.30;;;;;;4196665;28;20044;-38
2021/01/13 04:43:53;;;;;;;0.00;0.00;;;16.70;61.20;;;;;;4196369;28;20102;-39
2021/01/13 04:46:30;;;;;;;0.13;0.13;;;16.70;61.50;;;;;;4196387;28;20056;-39
2021/01/13 04:49:07;;;;;;;0.00;0.00;;;16.60;61.50;;;;;;4196146;28;20178;-39
2021/01/13 04:51:31;;;;;;;0.13;0.13;;;16.60;61.70;;;;;;4196545;28;20052;-39
2021/01/13 04:53:55;;;;;;;0.00;0.00;;;16.50;61.90;;;;;;4196290;28;20044;-38
2021/01/13 04:56:19;;;;;;;0.00;0.00;;;16.40;62.20;;;;;;4196235;28;20052;-39
2021/01/13 04:59:19;;;;;;;0.00;0.00;;;16.30;62.60;;;;;;4189254;28;20124;-39
2021/01/13 05:02:06;;;;;;;0.00;0.00;;;16.30;63.10;;;;;;4196360;28;20105;-40
2021/01/13 05:04:59;;;;;;;0.00;0.00;;;16.30;63.10;;;;;;4196209;28;20052;-39
2021/01/13 05:07:41;;;;;;;0.00;0.00;;;16.40;62.70;;;;;;4196238;28;20059;-39
2021/01/13 05:10:04;;;;;;;;;;;16.40;62.50;;;;;;4196762;28;20052;-39
2021/01/13 05:12:27;;;;;;;0.00;0.00;;;16.40;62.50;;;;;;4195457;28;19931;-40
2021/01/13 05:14:57;;;;;;;0.57;0.57;;;16.50;62.30;;;;;;4194728;28;20135;-39
2021/01/13 05:17:33;;;;;;;0.25;0.25;;;16.70;61.60;;;;;;4196204;28;20052;-40
2021/01/13 05:20:23;;;;;;;0.00;0.00;;;16.80;61.20;;;;;;4195480;28;20052;-40
2021/01/13 05:22:45;;;;;;;0.00;0.00;;;16.80;60.90;;;;;;4196159;28;20056;-39
2021/01/13 05:25:08;;;;;;;0.00;0.00;;;16.80;60.80;;;;;;4195942;28;20060;-39
2021/01/13 05:28:04;;;;;;;0.00;0.00;;;16.80;61.00;;;;;;4195888;28;20578;-38
2021/01/13 05:30:31;;;;;;;0.00;0.00;;;16.70;62.30;;;;;;4195913;28;20479;-39
2021/01/13 05:32:57;;;;;;;0.00;0.00;;;16.60;61.80;;;;;;4195570;28;20055;-39
2021/01/13 05:35:20;;;;;;;0.00;0.00;;;16.50;62.10;;;;;;4196108;28;20568;-38
2021/01/13 05:37:48;;;;;;;0.00;0.00;;;16.50;62.30;;;;;;4196045;28;20080;-38
2021/01/13 05:40:10;;;;;;;0.00;0.00;;;16.40;62.40;;;;;;4195686;28;20087;-38
2021/01/13 05:42:31;;;;;;;0.00;0.00;;;16.40;62.70;;;;;;4195596;28;20083;-39
2021/01/13 05:44:55;;;;;;;0.00;0.00;;;16.40;62.70;;;;;;4196057;28;20567;-39
2021/01/13 05:47:51;;;;;;;0.00;0.00;;;16.50;62.50;;;;;;4195509;28;20067;-39
2021/01/13 05:50:17;;;;;;;0.20;0.20;;;16.40;62.40;;;;;;4179193;28;20060;-38
2021/01/13 05:52:42;;;;;;;0.20;0.20;;;16.40;62.50;;;;;;4183494;28;20048;-38
2021/01/13 05:55:06;;;;;;;0.00;0.00;;;16.40;62.60;;;;;;4195980;28;20109;-39
2021/01/13 05:57:27;;;;;;;0.00;0.00;;;16.50;62.40;;;;;;4195454;28;20056;-38
2021/01/13 05:59:53;;;;;;;0.00;0.00;;;16.60;62.10;;;;;;4195748;28;20059;-38
2021/01/13 06:02:16;;;;;;;0.00;0.00;;;16.60;61.80;;;;;;4195582;28;20080;-38
2021/01/13 06:04:43;;;;;;;0.00;0.00;;;16.80;61.10;;;;;;4195435;28;20114;-38
2021/01/13 06:07:09;;;;;;;0.00;0.00;;;16.90;60.70;;;;;;4195469;28;20056;-38
2021/01/13 06:09:37;;;;;;;0.00;0.00;;;16.90;60.40;;;;;;4195731;28;20076;-38
2021/01/13 06:12:01;;;;;;;0.00;0.00;;;16.90;60.50;;;;;;4195251;28;20045;-38
2021/01/13 06:14:25;;;;;;;0.10;0.10;;;16.80;60.80;;;;;;4178895;28;20558;-39
2021/01/13 06:16:51;;;;;;;0.00;0.00;;;16.70;61.20;;;;;;4192360;28;20053;-39
2021/01/13 06:19:12;;;;;;;0.00;0.00;;;16.60;61.50;;;;;;4189015;28;20135;-38
2021/01/13 06:21:35;;;;;;;0.00;0.00;;;16.50;62.10;;;;;;4195167;28;20056;-38
2021/01/13 06:23:57;;;;;;;0.00;0.00;;;16.40;62.30;;;;;;4195285;28;20067;-38
2021/01/13 06:26:19;;;;;;;0.00;0.00;;;16.40;62.30;;;;;;4182402;28;20537;-38
2021/01/13 06:29:36;;;;;;;0.00;0.00;;;16.40;62.40;;;;;;4196366;28;20135;-39
2021/01/13 06:32:02;;;;;;;0.00;0.00;;;16.40;62.70;;;;;;4198776;28;20118;-38
2021/01/13 06:34:28;;;;;;;0.00;0.00;;;16.30;62.80;;;;;;4181843;28;20064;-39
2021/01/13 06:37:08;;;;;;;0.00;0.00;;;16.40;62.80;;;;;;4182111;28;20064;-39
2021/01/13 06:39:32;;;;;;;0.00;0.00;;;16.30;62.90;;;;;;4181991;28;20057;-39
2021/01/13 06:41:53;;;;;;;0.00;0.00;;;16.20;63.10;;;;;;4194148;28;20062;-39
2021/01/13 06:44:15;;;;;;;0.00;0.00;;;16.30;63.50;;;;;;4198688;28;20071;-39
2021/01/13 06:46:36;;;;;;;0.03;0.03;;;16.20;63.30;;;;;;4197971;28;20495;-38
2021/01/13 06:49:15;;;;;;;0.00;0.00;;;16.20;63.40;;;;;;4197804;28;20057;-38
2021/01/13 06:51:37;;;;;;;0.00;0.00;;;16.20;63.80;;;;;;4197953;28;20053;-39
2021/01/13 06:54:05;;;;;;;0.00;0.00;;;16.20;63.70;;;;;;4198261;28;20045;-39
2021/01/13 06:56:26;;;;;;;0.00;0.00;;;16.40;63.20;;;;;;4198118;28;20052;-38
2021/01/13 06:59:00;;;;;;;0.10;0.10;;;16.40;62.90;;;;;;4198046;28;20052;-38
2021/01/13 07:01:21;;;;;;;0.00;0.00;;;16.40;62.90;;;;;;4198192;28;20055;-38
2021/01/13 07:03:43;;;;;;;4.50;1.45;;;16.40;63.30;;;;;;4193425;28;20126;-38
2021/01/13 07:06:10;;;;;;;0.00;0.00;;;16.40;63.90;;;;;;4194267;28;20057;-39
2021/01/13 07:08:33;;;;;;;0.00;0.00;;;16.40;64.00;;;;;;4194167;28;20098;-39
2021/01/13 07:11:04;;;;;;;0.00;0.00;;;16.30;63.90;;;;;;4189172;28;20045;-38
2021/01/13 07:13:27;;;;;;;0.17;0.17;;;16.20;64.10;;;;;;4189583;28;20456;-39
2021/01/13 07:15:48;;;;;;;0.10;0.10;;;16.20;64.10;;;;;;4191982;28;20044;-39
2021/01/13 07:18:10;;;;;;;0.00;0.00;;;16.20;63.80;;;;;;4193917;28;20106;-38
2021/01/13 07:20:39;;;;;;;0.17;0.17;;;16.30;64.10;;;;;;4189701;28;20045;-38
2021/01/13 07:23:00;;;;;;;0.43;0.43;;;16.30;62.60;;;;;;4188780;28;20051;-38
2021/01/13 07:25:23;;;;;;;0.10;0.10;;;16.30;62.30;;;;;;4190715;28;20124;-38
2021/01/13 07:27:47;;;;;;;0.00;0.00;;;16.30;62.20;;;;;;4195512;28;20048;-39
2021/01/13 07:30:14;;;;;;;0.00;0.00;;;16.30;62.20;;;;;;4194674;28;20106;-38
2021/01/13 07:32:39;;;;;;;0.00;0.00;;;16.10;62.00;;;;;;4192900;28;20517;-38
2021/01/13 07:35:05;;;;;;;0.00;0.00;;;16.10;62.00;;;;;;4185620;28;20060;-38
2021/01/13 07:37:34;;;;;;;0.00;0.00;;;16.00;62.10;;;;;;4194946;28;20564;-38
2021/01/13 07:40:32;;;;;;;0.00;0.00;;;16.10;61.80;;;;;;4188575;28;20550;-38
2021/01/13 07:43:03;;;;;;;0.00;0.00;;;16.20;61.20;;;;;;4191488;28;20053;-38
2021/01/13 07:45:29;;;;;;;;;;;16.40;60.70;;;;;;4192360;28;20072;-39
2021/01/13 07:48:33;;;;;;;0.00;0.00;;;16.60;60.00;;;;;;4195379;28;19930;-39
2021/01/13 07:51:07;;;;;;;0.88;0.88;;;16.80;59.20;;;;;;4194977;28;20079;-39
2021/01/13 07:53:29;;;;;;;0.00;0.00;;;16.90;58.80;;;;;;4192754;28;20090;-39
2021/01/13 07:55:58;;;;;;;0.00;0.00;;;16.80;58.80;;;;;;4193061;28;20509;-38
2021/01/13 07:58:20;;;;;;;0.00;0.00;;;16.70;58.90;;;;;;4191754;28;20056;-38
2021/01/13 08:00:59;;;;;;;0.00;0.00;;;16.60;59.00;;;;;;4188080;28;20423;-39
2021/01/13 08:03:57;;;;;;;0.00;0.00;;;16.50;59.40;;;;;;4192101;28;20127;-38
2021/01/13 08:06:34;;;;;;;0.00;0.00;;;16.40;59.50;;;;;;4191417;28;20119;-38
2021/01/13 08:09:13;;;;;;;0.30;0.30;;;16.50;59.30;;;;;;4192271;28;20052;-38
2021/01/13 08:12:14;;;;;;;0.95;0.95;;;16.40;59.10;;;;;;4191509;28;20048;-39
2021/01/13 08:14:53;;;;;;;;;;;16.30;59.20;;;;;;4193675;28;20620;-39
2021/01/13 08:17:37;;;;;;;0.00;0.00;;;16.30;59.30;;;;;;4191645;28;19925;-39
2021/01/13 08:20:37;;;;;;;0.00;0.00;;;16.20;59.60;;;;;;4188348;28;20049;-40
2021/01/13 08:23:02;;;;;;;0.00;0.00;;;16.00;59.80;;;;;;4192390;28;20052;-39
2021/01/13 08:25:27;;;;;;;0.00;0.00;;;16.00;60.00;;;;;;4195521;28;20052;-40
2021/01/13 08:27:57;;;;;;;0.00;0.00;;;16.20;60.00;;;;;;4190411;28;20044;-39
2021/01/13 08:30:24;;;;;;;0.00;0.00;;;16.30;59.50;;;;;;4195234;28;20048;-39
2021/01/13 08:32:50;;;;;;;0.20;0.20;;;16.40;59.40;;;;;;4194509;28;20723;-39
2021/01/13 08:35:13;;;;;;;0.22;0.22;;;16.40;59.40;;;;;;4193960;28;20053;-39
2021/01/13 08:37:37;;;;;;;0.00;0.00;;;16.40;59.60;;;;;;4189101;28;20450;-39
2021/01/13 08:39:59;;;;;;;1.05;1.05;;;16.40;59.40;;;;;;4190636;28;20049;-39
2021/01/13 08:42:23;;;;;;;0.00;0.00;;;16.50;59.20;;;;;;4191351;28;20041;-40
2021/01/13 08:44:44;;;;;;;0.60;0.60;;;16.60;59.10;;;;;;4190149;28;20128;-38
2021/01/13 08:47:07;;;;;;;6.55;1.88;;;16.50;59.30;;;;;;4188570;28;20092;-39
2021/01/13 08:49:30;;;;;;;6.57;0.63;;;16.50;59.50;;;;;;4188546;28;20048;-38
2021/01/13 08:52:13;;;;;;;1.48;1.38;;;16.40;59.70;;;;;;4187698;28;20061;-39
2021/01/13 08:54:35;;;;;;;0.85;0.85;;;16.50;59.70;;;;;;4192138;28;20049;-38
2021/01/13 08:56:57;;;;;;;1.02;0.98;;;16.50;59.40;;;;;;4191853;28;20118;-38
2021/01/13 08:59:18;;;;;;;0.00;0.00;;;16.50;59.40;;;;;;4186875;28;20045;-38
2021/01/13 09:01:41;;;;;;;0.00;0.00;;;16.40;59.50;;;;;;4192965;28;20059;-38
2021/01/13 09:04:11;;;;;;;4.85;2.58;;;16.20;59.70;;;;;;4191979;28;20055;-38
2021/01/13 09:06:33;;;;;;;0.20;0.20;;;16.10;59.80;;;;;;4187960;28;20076;-38
2021/01/13 09:08:57;;;;;;;0.47;0.47;;;16.00;59.90;;;;;;4186719;28;20049;-38
2021/01/13 09:11:32;;;;;;;0.20;0.20;;;15.90;60.20;;;;;;4194890;28;20461;-38
2021/01/13 09:13:54;;;;;;;0.10;0.10;;;15.90;60.30;;;;;;4190173;28;20052;-39
2021/01/13 09:16:33;;;;;;;;;;;16.00;60.00;;;;;;4188259;28;20055;-38
2021/01/13 09:18:55;;;;;;;0.00;0.00;;;16.10;59.50;;;;;;4191000;28;19925;-38
2021/01/13 09:21:20;;;;;;;0.32;0.32;;;16.10;59.10;;;;;;4187589;28;20049;-38
2021/01/13 09:23:54;;;;;;;0.10;0.10;;;16.20;59.00;;;;;;4191076;28;20070;-38
2021/01/13 09:26:20;;;;;;;0.65;0.65;;;16.20;58.90;;;;;;4190002;28;20124;-38
2021/01/13 09:28:43;;;;;;;1.10;1.10;;;16.30;59.00;;;;;;4188846;28;20496;-38
2021/01/13 09:31:12;;;;;;;0.65;0.65;;;16.40;58.90;;;;;;4187506;28;20052;-38
2021/01/13 09:33:39;;;;;;;0.32;0.32;;;16.40;58.90;;;;;;4191731;28;20068;-38
2021/01/13 09:36:01;;;;;;;0.63;0.63;;;16.40;59.00;;;;;;4191524;28;20203;-38
2021/01/13 09:38:28;;;;;;;0.75;0.75;;;16.40;59.00;;;;;;4186572;28;20055;-38
2021/01/13 09:40:56;;;;;;;0.05;0.05;;;16.30;58.90;;;;;;4193705;28;20043;-38
2021/01/13 09:43:28;;;;;;;0.30;0.30;;;16.30;59.00;;;;;;4189461;28;20522;-38
2021/01/13 09:45:50;;;;;;;0.00;0.00;;;16.20;59.10;;;;;;4189818;28;20583;-38
2021/01/13 09:48:17;;;;;;;0.08;0.08;;;16.20;59.10;;;;;;4192393;28;20092;-38
2021/01/13 09:50:39;;;;;;;0.80;0.75;;;16.20;59.00;;;;;;4191017;28;20202;-38
2021/01/13 09:53:03;;;;;;;;;;;16.10;58.90;;;;;;4190354;28;20126;-38
2021/01/13 09:55:26;;;;;;;0.20;0.20;;;16.10;58.90;;;;;;4190741;28;19925;-38
2021/01/13 09:57:55;;;;;;;2.50;2.30;;;16.00;59.10;;;;;;4191406;28;20048;-38
2021/01/13 10:00:19;;;;;;;0.70;0.65;;;16.00;59.10;;;;;;4189475;28;20052;-38
2021/01/13 10:02:42;;;;;;;0.00;0.00;;;16.00;59.20;;;;;;4192670;28;20059;-38
2021/01/13 10:05:05;;;;;;;0.00;0.00;;;15.90;59.30;;;;;;4191031;28;20052;-38
2021/01/13 10:07:31;;;;;;;0.10;0.10;;;15.80;59.40;;;;;;4190307;28;20151;-38
2021/01/13 10:09:52;;;;;;;0.15;0.15;;;15.80;59.60;;;;;;4206975;28;20545;-38
2021/01/13 10:12:15;;;;;;;;;;;15.70;59.70;;;;;;4191390;28;20522;-38
2021/01/13 10:14:39;;;;;;;0.10;0.10;;;15.60;60.20;;;;;;4187770;28;19928;-38
2021/01/13 10:17:01;;;;;;;0.00;0.00;;;15.50;60.20;;;;;;4186768;28;20682;-38
2021/01/13 10:19:28;;;;;;;0.00;0.00;;;15.40;60.50;;;;;;4189634;28;20045;-38
2021/01/13 10:21:50;;;;;;;0.80;0.45;;;15.40;60.80;;;;;;4193377;28;20056;-38
2021/01/13 10:24:13;;;;;;;2.08;1.48;;;15.30;60.90;;;;;;4188220;28;20053;-38
2021/01/13 10:26:37;;;;;;;0.00;0.00;;;15.40;60.70;;;;;;4190514;28;20064;-38
2021/01/13 10:29:00;;;;;;;4.03;2.70;;;15.60;60.10;;;;;;4191911;28;20109;-38
2021/01/13 10:31:29;;;;;;;1.05;0.98;;;15.80;59.60;;;;;;4192732;28;20078;-38
2021/01/13 10:33:52;;;;;;;0.00;0.00;;;15.90;59.40;;;;;;4191691;28;20400;-38
2021/01/13 10:36:35;;;;;;;0.00;0.00;;;15.90;59.30;;;;;;4188758;28;20132;-38
2021/01/13 10:38:57;;;;;;;0.00;0.00;;;15.80;59.30;;;;;;4189655;28;20050;-38
2021/01/13 10:41:33;;;;;;;1.60;1.50;;;15.70;59.30;;;;;;4185617;28;20048;-38
2021/01/13 10:44:04;;;;;;;0.30;0.30;;;15.80;59.20;;;;;;4188835;28;20094;-38
2021/01/13 10:46:27;;;;;;;0.28;0.28;;;15.90;58.80;;;;;;4186481;28;20068;-39
2021/01/13 10:48:51;;;;;;;0.00;0.00;;;15.90;58.70;;;;;;4185853;28;20040;-38
2021/01/13 10:51:18;;;;;;;0.00;0.00;;;16.00;58.50;;;;;;4189677;28;20057;-38
2021/01/13 10:53:50;;;;;;;0.00;0.00;;;16.00;58.50;;;;;;4188852;28;20120;-39
2021/01/13 10:56:18;;;;;;;0.00;0.00;;;15.90;58.60;;;;;;4187991;28;20060;-38
2021/01/13 10:58:46;;;;;;;0.32;0.32;;;15.90;58.80;;;;;;4190484;28;20045;-38
2021/01/13 11:01:09;;;;;;;0.38;0.38;;;15.90;58.80;;;;;;4191052;28;20586;-38
2021/01/13 11:03:34;;;;;;;1.25;1.20;;;16.00;58.90;;;;;;4189606;28;20817;-38
2021/01/13 11:05:56;;;;;;;0.00;0.00;;;15.90;58.90;;;;;;4185813;28;20387;-38
2021/01/13 11:08:18;;;;;;;0.85;0.85;;;15.90;59.10;;;;;;4185794;28;20064;-38
2021/01/13 11:10:40;;;;;;;0.45;0.45;;;15.80;59.30;;;;;;4191643;28;20049;-38
2021/01/13 11:13:04;;;;;;;7.53;3.25;;;15.80;59.40;;;;;;4191886;28;20052;-38
2021/01/13 11:15:26;;;;;;;1.30;1.30;;;16.00;59.10;;;;;;4188689;28;20557;-38
2021/01/13 11:17:51;;;;;;;9.00;1.27;;;16.10;58.70;;;;;;4192017;28;20506;-38
2021/01/13 11:20:14;;;;;;;0.88;0.88;;;16.10;58.50;;;;;;4190901;28;20053;-38
2021/01/13 11:22:47;;;;;;;2.03;1.92;;;16.10;58.40;;;;;;4192491;28;20056;-38
2021/01/13 11:25:17;;;;;;;0.90;0.82;;;16.10;58.60;;;;;;4194445;28;20132;-38
2021/01/13 11:27:38;;;;;;;1.77;1.67;;;16.10;58.70;;;;;;4190712;28;20041;-38
2021/01/13 11:30:00;;;;;;;0.10;0.10;;;16.00;59.00;;;;;;4192718;28;20048;-38
2021/01/13 11:32:24;;;;;;;2.80;1.95;;;16.00;59.20;;;;;;4188244;28;20493;-38
2021/01/13 11:34:51;;;;;;;0.38;0.38;;;16.00;59.20;;;;;;4192334;28;20521;-38
2021/01/13 11:37:40;;;;;;;0.80;0.80;;;16.00;59.30;;;;;;4190939;28;20059;-38
2021/01/13 11:40:26;;;;;;;23.58;1.20;;;15.90;59.30;;;;;;4189039;28;20135;-39
2021/01/13 11:43:11;;;;;;;27.17;1.42;;;15.90;59.50;;;;;;4191032;28;20048;-38
2021/01/13 11:45:37;;;;;;;1.17;1.17;;;15.90;59.70;;;;;;4191927;28;20044;-38
2021/01/13 11:48:05;;;;;;;0.30;0.30;;;15.80;59.90;;;;;;4192230;28;20048;-38
2021/01/13 11:50:29;;;;;;;0.10;0.10;;;15.70;60.00;;;;;;4192053;28;20162;-38
2021/01/13 11:52:57;;;;;;;1.15;0.98;;;15.70;60.40;;;;;;4188918;28;20431;-38
2021/01/13 11:55:25;;;;;;;0.00;0.00;;;15.60;60.60;;;;;;4190930;28;20052;-39
2021/01/13 11:57:47;;;;;;;0.25;0.25;;;15.50;60.80;;;;;;4192037;28;20053;-38
2021/01/13 12:00:16;;;;;;;0.00;0.00;;;15.40;60.70;;;;;;4189481;28;20431;-38
2021/01/13 12:02:39;;;;;;;1.23;1.08;;;15.30;61.00;;;;;;4192115;28;20514;-38
2021/01/13 12:05:00;;;;;;;0.60;0.60;;;15.20;61.20;;;;;;4191713;28;20052;-38
2021/01/13 12:07:22;;;;;;;1.00;1.00;;;15.20;61.40;;;;;;4192618;28;20044;-38
2021/01/13 12:09:44;;;;;;;1.98;1.55;;;15.10;61.50;;;;;;4191504;28;20064;-38
2021/01/13 12:12:05;;;;;;;0.00;0.00;;;15.00;61.80;;;;;;4191242;28;20520;-38
2021/01/13 12:14:27;;;;;;;0.25;0.25;;;15.10;61.70;;;;;;4186955;28;20053;-38
2021/01/13 12:17:00;;;;;;;;;;;15.10;61.40;;;;;;4187868;28;20546;-38
2021/01/13 12:19:35;;;;;;;0.00;0.00;;;15.10;61.30;;;;;;4190364;28;19992;-39
2021/01/13 12:21:59;;;;;;;0.35;0.35;;;15.20;61.10;;;;;;4187513;28;20159;-38
2021/01/13 12:24:23;;;;;;;0.10;0.10;;;15.20;61.10;;;;;;4184079;28;20053;-38
2021/01/13 12:26:45;;;;;;;0.00;0.00;;;15.20;61.30;;;;;;4191778;28;20552;-38
2021/01/13 12:29:16;;;;;;;0.73;0.73;;;15.20;61.40;;;;;;4197067;28;20048;-38
2021/01/13 12:31:38;;;;;;;0.15;0.15;;;15.20;61.50;;;;;;4180191;28;20060;-40
2021/01/13 12:33:59;;;;;;;0.80;0.80;;;15.30;61.50;;;;;;4191286;28;20495;-38
2021/01/13 12:36:22;;;;;;;0.00;0.00;;;15.50;61.60;;;;;;4196707;28;20058;-38
2021/01/13 12:38:46;;;;;;;1.48;0.90;;;15.60;61.30;;;;;;4192491;28;20056;-38
2021/01/13 12:41:08;;;;;;;2.28;1.55;;;15.60;61.80;;;;;;4188704;28;20053;-38
2021/01/13 12:43:35;;;;;;;1.95;1.88;;;15.70;60.90;;;;;;4188926;28;20061;-38
2021/01/13 12:45:56;;;;;;;0.77;0.77;;;15.60;60.90;;;;;;4189047;28;20081;-38
2021/01/13 12:48:18;;;;;;;;;;;15.60;60.90;;;;;;4187216;28;20053;-38
2021/01/13 12:50:40;;;;;;;0.00;0.00;;;15.50;61.10;;;;;;4190069;28;20294;-38